sensor_id;sensor_type;location;lat;lon;timestamp;pressure;altitude;pressure_sealevel;temperature;humidity
74334;BME280;62753;40.394;-80.022;2023-09-19T00:01:00;97130.55;;;22.97;33.91
74334;BME280;62753;40.394;-80.022;2023-09-19T00:03:26;97129.62;;;23.99;32.15
74334;BME280;62753;40.394;-80.022;2023-09-19T00:05:51;97133.05;;;24.00;32.09
74334;BME280;62753;40.394;-80.022;2023-09-19T00:08:16;97136.89;;;24.17;32.04
74334;BME280;62753;40.394;-80.022;2023-09-19T00:10:43;97142.73;;;23.79;32.10
74334;BME280;62753;40.394;-80.022;2023-09-19T00:13:08;97143.31;;;23.84;31.72
74334;BME280;62753;40.394;-80.022;2023-09-19T00:15:38;97144.84;;;24.02;31.88
74334;BME280;62753;40.394;-80.022;2023-09-19T00:17:58;97146.23;;;23.75;32.27
74334;BME280;62753;40.394;-80.022;2023-09-19T00:20:24;97147.28;;;23.87;31.93
74334;BME280;62753;40.394;-80.022;2023-09-19T00:22:49;97152.12;;;23.61;32.25
74334;BME280;62753;40.394;-80.022;2023-09-19T00:25:15;97155.98;;;23.92;32.32
74334;BME280;62753;40.394;-80.022;2023-09-19T00:27:40;97164.32;;;23.25;32.60
74334;BME280;62753;40.394;-80.022;2023-09-19T00:30:08;97169.85;;;23.87;32.50
74334;BME280;62753;40.394;-80.022;2023-09-19T00:32:30;97170.48;;;24.29;31.98
74334;BME280;62753;40.394;-80.022;2023-09-19T00:34:56;97172.89;;;23.97;32.11
74334;BME280;62753;40.394;-80.022;2023-09-19T00:37:21;97176.42;;;23.66;32.04
74334;BME280;62753;40.394;-80.022;2023-09-19T00:39:46;97182.72;;;23.65;33.03
74334;BME280;62753;40.394;-80.022;2023-09-19T00:42:18;97186.64;;;22.54;33.84
74334;BME280;62753;40.394;-80.022;2023-09-19T00:44:37;97191.20;;;22.67;33.83
74334;BME280;62753;40.394;-80.022;2023-09-19T00:47:03;97195.01;;;22.01;34.72
74334;BME280;62753;40.394;-80.022;2023-09-19T00:49:28;97196.10;;;22.70;34.13
74334;BME280;62753;40.394;-80.022;2023-09-19T00:51:53;97199.82;;;22.98;33.43
74334;BME280;62753;40.394;-80.022;2023-09-19T00:54:18;97198.83;;;22.65;33.42
74334;BME280;62753;40.394;-80.022;2023-09-19T00:56:44;97203.65;;;22.33;34.08
74334;BME280;62753;40.394;-80.022;2023-09-19T00:59:08;97208.67;;;22.46;33.94
74334;BME280;62753;40.394;-80.022;2023-09-19T01:01:34;97212.06;;;22.35;34.33
74334;BME280;62753;40.394;-80.022;2023-09-19T01:03:59;97212.56;;;22.30;33.87
74334;BME280;62753;40.394;-80.022;2023-09-19T01:06:26;97216.84;;;21.29;35.46
74334;BME280;62753;40.394;-80.022;2023-09-19T01:08:50;97217.48;;;22.07;33.88
74334;BME280;62753;40.394;-80.022;2023-09-19T01:11:21;97218.20;;;22.58;33.32
74334;BME280;62753;40.394;-80.022;2023-09-19T01:13:52;97223.10;;;22.82;32.52
74334;BME280;62753;40.394;-80.022;2023-09-19T01:16:11;97227.35;;;23.07;32.61
74334;BME280;62753;40.394;-80.022;2023-09-19T01:18:39;97227.81;;;22.30;33.35
74334;BME280;62753;40.394;-80.022;2023-09-19T01:21:05;97231.01;;;22.91;32.77
74334;BME280;62753;40.394;-80.022;2023-09-19T01:23:28;97229.88;;;21.97;34.15
74334;BME280;62753;40.394;-80.022;2023-09-19T01:28:28;97230.68;;;22.83;32.08
74334;BME280;62753;40.394;-80.022;2023-09-19T01:30:42;97233.52;;;22.38;33.44
74334;BME280;62753;40.394;-80.022;2023-09-19T01:33:06;97232.63;;;22.28;33.53
74334;BME280;62753;40.394;-80.022;2023-09-19T01:35:29;97232.51;;;22.85;32.73
74334;BME280;62753;40.394;-80.022;2023-09-19T01:37:55;97233.28;;;22.10;33.58
74334;BME280;62753;40.394;-80.022;2023-09-19T01:40:21;97232.00;;;21.88;33.48
74334;BME280;62753;40.394;-80.022;2023-09-19T01:42:50;97233.39;;;22.13;33.29
74334;BME280;62753;40.394;-80.022;2023-09-19T01:45:15;97233.65;;;22.15;33.44
74334;BME280;62753;40.394;-80.022;2023-09-19T01:47:41;97232.61;;;22.42;33.60
74334;BME280;62753;40.394;-80.022;2023-09-19T01:50:11;97235.58;;;21.83;34.64
74334;BME280;62753;40.394;-80.022;2023-09-19T01:52:30;97232.70;;;21.74;33.85
74334;BME280;62753;40.394;-80.022;2023-09-19T01:54:59;97231.02;;;20.92;35.15
74334;BME280;62753;40.394;-80.022;2023-09-19T01:57:26;97230.92;;;21.77;34.71
74334;BME280;62753;40.394;-80.022;2023-09-19T01:59:50;97231.82;;;21.80;34.19
74334;BME280;62753;40.394;-80.022;2023-09-19T02:02:09;97228.89;;;21.92;33.88
74334;BME280;62753;40.394;-80.022;2023-09-19T02:04:34;97228.78;;;22.03;33.60
74334;BME280;62753;40.394;-80.022;2023-09-19T02:06:59;97231.99;;;21.08;34.25
74334;BME280;62753;40.394;-80.022;2023-09-19T02:09:25;97233.92;;;22.57;32.94
74334;BME280;62753;40.394;-80.022;2023-09-19T02:11:49;97230.06;;;22.24;33.88
74334;BME280;62753;40.394;-80.022;2023-09-19T02:14:15;97233.02;;;21.64;34.08
74334;BME280;62753;40.394;-80.022;2023-09-19T02:16:40;97230.71;;;22.24;33.13
74334;BME280;62753;40.394;-80.022;2023-09-19T02:19:05;97229.88;;;22.60;32.73
74334;BME280;62753;40.394;-80.022;2023-09-19T02:21:31;97232.32;;;22.98;31.67
74334;BME280;62753;40.394;-80.022;2023-09-19T02:23:57;97240.16;;;21.48;34.27
74334;BME280;62753;40.394;-80.022;2023-09-19T02:26:22;97239.56;;;22.43;32.46
74334;BME280;62753;40.394;-80.022;2023-09-19T02:28:48;97242.06;;;22.86;31.87
74334;BME280;62753;40.394;-80.022;2023-09-19T02:31:14;97245.22;;;22.62;32.10
74334;BME280;62753;40.394;-80.022;2023-09-19T02:33:38;97247.15;;;22.37;32.28
74334;BME280;62753;40.394;-80.022;2023-09-19T02:36:04;97250.94;;;22.53;32.35
74334;BME280;62753;40.394;-80.022;2023-09-19T02:38:29;97255.11;;;22.11;32.41
74334;BME280;62753;40.394;-80.022;2023-09-19T02:40:54;97255.20;;;22.10;32.90
74334;BME280;62753;40.394;-80.022;2023-09-19T02:43:20;97258.75;;;22.46;32.34
74334;BME280;62753;40.394;-80.022;2023-09-19T02:45:45;97262.01;;;21.99;33.23
74334;BME280;62753;40.394;-80.022;2023-09-19T02:48:16;97260.85;;;22.57;32.29
74334;BME280;62753;40.394;-80.022;2023-09-19T02:50:35;97261.01;;;21.96;33.13
74334;BME280;62753;40.394;-80.022;2023-09-19T02:53:01;97260.41;;;21.92;32.62
74334;BME280;62753;40.394;-80.022;2023-09-19T02:55:26;97259.67;;;21.94;32.81
74334;BME280;62753;40.394;-80.022;2023-09-19T02:57:53;97261.70;;;23.04;31.58
74334;BME280;62753;40.394;-80.022;2023-09-19T03:00:17;97262.90;;;22.18;32.83
74334;BME280;62753;40.394;-80.022;2023-09-19T03:02:42;97262.80;;;20.30;35.08
74334;BME280;62753;40.394;-80.022;2023-09-19T03:05:08;97259.94;;;21.98;32.56
74334;BME280;62753;40.394;-80.022;2023-09-19T03:07:32;97260.68;;;22.12;32.70
74334;BME280;62753;40.394;-80.022;2023-09-19T03:09:58;97258.78;;;22.09;32.91
74334;BME280;62753;40.394;-80.022;2023-09-19T03:12:24;97261.37;;;21.84;32.67
74334;BME280;62753;40.394;-80.022;2023-09-19T03:14:49;97260.00;;;21.88;32.61
74334;BME280;62753;40.394;-80.022;2023-09-19T03:17:14;97263.56;;;21.55;33.40
74334;BME280;62753;40.394;-80.022;2023-09-19T03:19:40;97263.93;;;21.76;33.58
74334;BME280;62753;40.394;-80.022;2023-09-19T03:22:05;97263.60;;;22.08;33.13
74334;BME280;62753;40.394;-80.022;2023-09-19T03:24:30;97263.65;;;22.14;33.07
74334;BME280;62753;40.394;-80.022;2023-09-19T03:27:00;97267.53;;;22.37;33.23
74334;BME280;62753;40.394;-80.022;2023-09-19T03:29:20;97269.04;;;21.05;34.30
74334;BME280;62753;40.394;-80.022;2023-09-19T03:31:45;97269.29;;;22.61;32.89
74334;BME280;62753;40.394;-80.022;2023-09-19T03:34:10;97269.26;;;21.82;33.54
74334;BME280;62753;40.394;-80.022;2023-09-19T03:36:37;97272.83;;;20.87;35.43
74334;BME280;62753;40.394;-80.022;2023-09-19T03:39:02;97272.98;;;21.55;34.32
74334;BME280;62753;40.394;-80.022;2023-09-19T03:41:27;97270.06;;;21.84;33.66
74334;BME280;62753;40.394;-80.022;2023-09-19T03:43:52;97273.54;;;21.35;34.58
74334;BME280;62753;40.394;-80.022;2023-09-19T03:46:18;97279.60;;;21.82;34.31
74334;BME280;62753;40.394;-80.022;2023-09-19T03:48:44;97285.10;;;21.21;35.34
74334;BME280;62753;40.394;-80.022;2023-09-19T03:51:09;97284.23;;;20.93;36.12
74334;BME280;62753;40.394;-80.022;2023-09-19T03:53:35;97287.92;;;21.26;34.99
74334;BME280;62753;40.394;-80.022;2023-09-19T03:56:00;97289.23;;;21.55;35.08
74334;BME280;62753;40.394;-80.022;2023-09-19T03:58:25;97292.66;;;19.64;37.41
74334;BME280;62753;40.394;-80.022;2023-09-19T04:00:50;97292.22;;;22.01;34.25
74334;BME280;62753;40.394;-80.022;2023-09-19T04:03:16;97295.93;;;20.62;36.69
74334;BME280;62753;40.394;-80.022;2023-09-19T04:05:40;97294.65;;;20.65;36.46
74334;BME280;62753;40.394;-80.022;2023-09-19T04:08:06;97298.57;;;20.72;36.45
74334;BME280;62753;40.394;-80.022;2023-09-19T04:10:32;97307.99;;;20.08;36.78
74334;BME280;62753;40.394;-80.022;2023-09-19T04:12:56;97304.34;;;20.47;36.71
74334;BME280;62753;40.394;-80.022;2023-09-19T04:15:22;97311.55;;;19.23;38.57
74334;BME280;62753;40.394;-80.022;2023-09-19T04:17:47;97312.00;;;20.31;37.24
74334;BME280;62753;40.394;-80.022;2023-09-19T04:20:12;97312.73;;;20.66;37.05
74334;BME280;62753;40.394;-80.022;2023-09-19T04:22:38;97314.20;;;20.24;37.80
74334;BME280;62753;40.394;-80.022;2023-09-19T04:25:04;97316.89;;;20.90;36.68
74334;BME280;62753;40.394;-80.022;2023-09-19T04:27:29;97314.27;;;20.89;36.42
74334;BME280;62753;40.394;-80.022;2023-09-19T04:29:55;97317.33;;;20.97;36.57
74334;BME280;62753;40.394;-80.022;2023-09-19T04:32:20;97315.03;;;21.31;36.25
74334;BME280;62753;40.394;-80.022;2023-09-19T04:34:46;97318.95;;;20.15;37.54
74334;BME280;62753;40.394;-80.022;2023-09-19T04:37:11;97320.47;;;20.29;37.77
74334;BME280;62753;40.394;-80.022;2023-09-19T04:39:41;97317.50;;;21.22;36.57
74334;BME280;62753;40.394;-80.022;2023-09-19T04:42:01;97314.61;;;21.32;35.99
74334;BME280;62753;40.394;-80.022;2023-09-19T04:44:26;97320.43;;;19.71;38.81
74334;BME280;62753;40.394;-80.022;2023-09-19T04:46:52;97313.61;;;20.57;36.99
74334;BME280;62753;40.394;-80.022;2023-09-19T04:49:17;97315.64;;;20.31;37.41
74334;BME280;62753;40.394;-80.022;2023-09-19T04:51:43;97318.65;;;20.30;37.80
74334;BME280;62753;40.394;-80.022;2023-09-19T04:54:08;97319.29;;;21.11;36.92
74334;BME280;62753;40.394;-80.022;2023-09-19T04:56:34;97318.39;;;20.66;36.80
74334;BME280;62753;40.394;-80.022;2023-09-19T04:58:59;97320.60;;;20.81;37.13
74334;BME280;62753;40.394;-80.022;2023-09-19T05:01:24;97321.89;;;20.73;36.42
74334;BME280;62753;40.394;-80.022;2023-09-19T05:03:49;97324.61;;;20.56;37.35
74334;BME280;62753;40.394;-80.022;2023-09-19T05:06:16;97325.16;;;20.31;37.86
74334;BME280;62753;40.394;-80.022;2023-09-19T05:08:40;97323.98;;;20.21;37.81
74334;BME280;62753;40.394;-80.022;2023-09-19T05:11:06;97320.48;;;20.41;37.15
74334;BME280;62753;40.394;-80.022;2023-09-19T05:13:32;97322.17;;;21.30;36.44
74334;BME280;62753;40.394;-80.022;2023-09-19T05:16:00;97325.26;;;20.23;37.43
74334;BME280;62753;40.394;-80.022;2023-09-19T05:18:22;97324.43;;;20.81;37.18
74334;BME280;62753;40.394;-80.022;2023-09-19T05:20:48;97324.84;;;20.47;37.64
74334;BME280;62753;40.394;-80.022;2023-09-19T05:23:13;97329.91;;;20.25;37.99
74334;BME280;62753;40.394;-80.022;2023-09-19T05:25:40;97323.86;;;20.71;37.50
74334;BME280;62753;40.394;-80.022;2023-09-19T05:28:04;97328.33;;;19.74;38.85
74334;BME280;62753;40.394;-80.022;2023-09-19T05:30:29;97329.79;;;20.73;37.63
74334;BME280;62753;40.394;-80.022;2023-09-19T05:32:54;97332.98;;;20.12;38.90
74334;BME280;62753;40.394;-80.022;2023-09-19T05:35:19;97333.95;;;20.15;38.74
74334;BME280;62753;40.394;-80.022;2023-09-19T05:37:45;97332.58;;;19.98;38.57
74334;BME280;62753;40.394;-80.022;2023-09-19T05:40:10;97333.67;;;19.92;38.75
74334;BME280;62753;40.394;-80.022;2023-09-19T05:42:36;97334.05;;;20.15;38.67
74334;BME280;62753;40.394;-80.022;2023-09-19T05:45:01;97333.92;;;20.17;38.81
74334;BME280;62753;40.394;-80.022;2023-09-19T05:47:26;97335.82;;;19.93;38.69
74334;BME280;62753;40.394;-80.022;2023-09-19T05:49:52;97336.31;;;20.17;38.61
74334;BME280;62753;40.394;-80.022;2023-09-19T05:52:23;97337.14;;;18.58;40.74
74334;BME280;62753;40.394;-80.022;2023-09-19T05:54:42;97343.26;;;20.35;38.15
74334;BME280;62753;40.394;-80.022;2023-09-19T05:57:07;97341.04;;;20.25;37.75
74334;BME280;62753;40.394;-80.022;2023-09-19T05:59:33;97344.69;;;19.91;38.91
74334;BME280;62753;40.394;-80.022;2023-09-19T06:01:59;97345.40;;;20.42;38.49
74334;BME280;62753;40.394;-80.022;2023-09-19T06:04:24;97343.49;;;19.67;38.87
74334;BME280;62753;40.394;-80.022;2023-09-19T06:06:50;97345.21;;;19.66;39.30
74334;BME280;62753;40.394;-80.022;2023-09-19T06:09:15;97348.69;;;18.38;41.39
74334;BME280;62753;40.394;-80.022;2023-09-19T06:11:42;97346.98;;;19.63;39.10
74334;BME280;62753;40.394;-80.022;2023-09-19T06:14:06;97347.05;;;18.98;40.17
74334;BME280;62753;40.394;-80.022;2023-09-19T06:16:32;97347.70;;;19.35;39.78
74334;BME280;62753;40.394;-80.022;2023-09-19T06:18:57;97348.78;;;19.39;40.46
74334;BME280;62753;40.394;-80.022;2023-09-19T06:21:22;97350.57;;;18.62;40.38
74334;BME280;62753;40.394;-80.022;2023-09-19T06:23:48;97356.79;;;19.93;38.65
74334;BME280;62753;40.394;-80.022;2023-09-19T06:26:12;97355.84;;;18.97;39.85
74334;BME280;62753;40.394;-80.022;2023-09-19T06:28:38;97356.70;;;19.07;39.68
74334;BME280;62753;40.394;-80.022;2023-09-19T06:31:03;97355.11;;;19.15;39.86
74334;BME280;62753;40.394;-80.022;2023-09-19T06:33:33;97355.75;;;19.46;39.36
74334;BME280;62753;40.394;-80.022;2023-09-19T06:35:54;97358.56;;;19.77;39.15
74334;BME280;62753;40.394;-80.022;2023-09-19T06:38:19;97362.34;;;20.37;38.66
74334;BME280;62753;40.394;-80.022;2023-09-19T06:40:44;97360.01;;;19.49;39.41
74334;BME280;62753;40.394;-80.022;2023-09-19T06:43:14;97362.87;;;19.40;39.94
74334;BME280;62753;40.394;-80.022;2023-09-19T06:45:35;97364.21;;;18.78;41.11
74334;BME280;62753;40.394;-80.022;2023-09-19T06:48:02;97363.47;;;19.70;39.23
74334;BME280;62753;40.394;-80.022;2023-09-19T06:50:26;97360.99;;;19.14;40.36
74334;BME280;62753;40.394;-80.022;2023-09-19T06:52:53;97361.06;;;19.69;39.46
74334;BME280;62753;40.394;-80.022;2023-09-19T06:55:17;97359.88;;;19.70;38.77
74334;BME280;62753;40.394;-80.022;2023-09-19T06:57:47;97359.15;;;20.17;38.28
74334;BME280;62753;40.394;-80.022;2023-09-19T07:00:09;97353.75;;;19.85;38.46
74334;BME280;62753;40.394;-80.022;2023-09-19T07:02:33;97350.00;;;19.16;40.03
74334;BME280;62753;40.394;-80.022;2023-09-19T07:04:59;97347.74;;;19.27;39.22
74334;BME280;62753;40.394;-80.022;2023-09-19T07:07:24;97350.65;;;20.06;38.88
74334;BME280;62753;40.394;-80.022;2023-09-19T07:09:49;97348.97;;;19.98;39.12
74334;BME280;62753;40.394;-80.022;2023-09-19T07:12:15;97350.77;;;18.47;41.23
74334;BME280;62753;40.394;-80.022;2023-09-19T07:14:41;97347.25;;;18.93;40.59
74334;BME280;62753;40.394;-80.022;2023-09-19T07:17:06;97349.81;;;19.62;38.93
74334;BME280;62753;40.394;-80.022;2023-09-19T07:19:32;97354.72;;;20.18;38.00
74334;BME280;62753;40.394;-80.022;2023-09-19T07:21:57;97354.19;;;19.83;38.41
74334;BME280;62753;40.394;-80.022;2023-09-19T07:24:22;97355.01;;;19.96;38.05
74334;BME280;62753;40.394;-80.022;2023-09-19T07:26:48;97354.82;;;17.74;41.91
74334;BME280;62753;40.394;-80.022;2023-09-19T07:29:14;97351.87;;;19.38;39.36
74334;BME280;62753;40.394;-80.022;2023-09-19T07:31:39;97354.38;;;19.74;38.41
74334;BME280;62753;40.394;-80.022;2023-09-19T07:34:04;97350.53;;;19.46;38.67
74334;BME280;62753;40.394;-80.022;2023-09-19T07:36:29;97349.52;;;18.99;39.79
74334;BME280;62753;40.394;-80.022;2023-09-19T07:38:55;97352.97;;;19.77;38.25
74334;BME280;62753;40.394;-80.022;2023-09-19T07:41:20;97353.76;;;20.29;37.57
74334;BME280;62753;40.394;-80.022;2023-09-19T07:43:46;97355.78;;;18.30;40.63
74334;BME280;62753;40.394;-80.022;2023-09-19T07:46:10;97354.35;;;19.68;39.26
74334;BME280;62753;40.394;-80.022;2023-09-19T07:48:36;97354.29;;;19.52;38.86
74334;BME280;62753;40.394;-80.022;2023-09-19T07:51:03;97352.75;;;18.79;40.09
74334;BME280;62753;40.394;-80.022;2023-09-19T07:53:26;97350.37;;;19.07;39.60
74334;BME280;62753;40.394;-80.022;2023-09-19T07:55:52;97349.84;;;19.86;38.65
74334;BME280;62753;40.394;-80.022;2023-09-19T07:58:17;97353.06;;;18.55;40.82
74334;BME280;62753;40.394;-80.022;2023-09-19T08:00:43;97357.27;;;18.52;41.00
74334;BME280;62753;40.394;-80.022;2023-09-19T08:03:08;97357.46;;;18.67;40.80
74334;BME280;62753;40.394;-80.022;2023-09-19T08:05:33;97354.54;;;18.63;41.37
74334;BME280;62753;40.394;-80.022;2023-09-19T08:07:59;97356.30;;;18.74;40.63
74334;BME280;62753;40.394;-80.022;2023-09-19T08:10:25;97357.25;;;19.70;38.89
74334;BME280;62753;40.394;-80.022;2023-09-19T08:12:50;97361.60;;;19.29;39.99
74334;BME280;62753;40.394;-80.022;2023-09-19T08:15:17;97360.26;;;18.94;40.49
74334;BME280;62753;40.394;-80.022;2023-09-19T08:17:42;97358.69;;;18.95;40.71
74334;BME280;62753;40.394;-80.022;2023-09-19T08:20:08;97358.00;;;19.12;39.67
74334;BME280;62753;40.394;-80.022;2023-09-19T08:22:32;97357.03;;;19.03;40.30
74334;BME280;62753;40.394;-80.022;2023-09-19T08:24:58;97358.41;;;18.96;40.42
74334;BME280;62753;40.394;-80.022;2023-09-19T08:27:23;97362.11;;;18.84;39.78
74334;BME280;62753;40.394;-80.022;2023-09-19T08:29:48;97364.08;;;19.00;40.07
74334;BME280;62753;40.394;-80.022;2023-09-19T08:32:14;97366.15;;;19.77;38.77
74334;BME280;62753;40.394;-80.022;2023-09-19T08:34:39;97366.10;;;19.39;39.00
74334;BME280;62753;40.394;-80.022;2023-09-19T08:37:05;97370.00;;;18.82;40.06
74334;BME280;62753;40.394;-80.022;2023-09-19T08:39:30;97370.10;;;19.40;39.20
74334;BME280;62753;40.394;-80.022;2023-09-19T08:41:58;97370.70;;;19.63;38.69
74334;BME280;62753;40.394;-80.022;2023-09-19T08:44:20;97374.52;;;18.84;39.93
74334;BME280;62753;40.394;-80.022;2023-09-19T08:46:46;97377.30;;;19.06;40.26
74334;BME280;62753;40.394;-80.022;2023-09-19T08:49:19;97376.38;;;19.89;38.76
74334;BME280;62753;40.394;-80.022;2023-09-19T08:51:41;97380.54;;;19.38;39.53
74334;BME280;62753;40.394;-80.022;2023-09-19T08:54:06;97389.19;;;18.69;40.44
74334;BME280;62753;40.394;-80.022;2023-09-19T08:56:27;97384.01;;;19.30;39.33
74334;BME280;62753;40.394;-80.022;2023-09-19T08:58:55;97386.13;;;18.12;40.97
74334;BME280;62753;40.394;-80.022;2023-09-19T09:01:17;97383.66;;;18.91;39.58
74334;BME280;62753;40.394;-80.022;2023-09-19T09:03:43;97388.46;;;19.61;39.05
74334;BME280;62753;40.394;-80.022;2023-09-19T09:06:08;97394.87;;;20.12;38.33
74334;BME280;62753;40.394;-80.022;2023-09-19T09:08:32;97396.68;;;19.12;39.70
74334;BME280;62753;40.394;-80.022;2023-09-19T09:10:58;97403.19;;;17.93;41.19
74334;BME280;62753;40.394;-80.022;2023-09-19T09:13:23;97403.60;;;18.22;41.24
74334;BME280;62753;40.394;-80.022;2023-09-19T09:15:48;97407.78;;;17.77;41.83
74334;BME280;62753;40.394;-80.022;2023-09-19T09:18:13;97404.72;;;18.83;39.95
74334;BME280;62753;40.394;-80.022;2023-09-19T09:20:39;97406.81;;;17.52;41.75
74334;BME280;62753;40.394;-80.022;2023-09-19T09:23:04;97405.77;;;17.28;42.23
74334;BME280;62753;40.394;-80.022;2023-09-19T09:28:00;97407.01;;;18.71;40.00
74334;BME280;62753;40.394;-80.022;2023-09-19T09:32:46;97414.85;;;18.46;40.76
74334;BME280;62753;40.394;-80.022;2023-09-19T09:35:11;97416.25;;;18.21;40.73
74334;BME280;62753;40.394;-80.022;2023-09-19T09:37:36;97414.64;;;19.18;39.91
74334;BME280;62753;40.394;-80.022;2023-09-19T09:40:02;97415.08;;;18.52;40.28
74334;BME280;62753;40.394;-80.022;2023-09-19T09:42:30;97412.56;;;19.38;39.76
74334;BME280;62753;40.394;-80.022;2023-09-19T09:49:48;97416.72;;;20.14;38.43
74334;BME280;62753;40.394;-80.022;2023-09-19T09:52:08;97421.23;;;19.06;39.53
74334;BME280;62753;40.394;-80.022;2023-09-19T09:54:34;97424.38;;;19.93;38.37
74334;BME280;62753;40.394;-80.022;2023-09-19T09:57:00;97427.55;;;18.44;40.30
74334;BME280;62753;40.394;-80.022;2023-09-19T10:01:50;97428.26;;;18.79;39.83
74334;BME280;62753;40.394;-80.022;2023-09-19T10:04:27;97429.87;;;19.54;39.09
74334;BME280;62753;40.394;-80.022;2023-09-19T10:06:41;97427.01;;;17.26;41.97
74334;BME280;62753;40.394;-80.022;2023-09-19T10:09:08;97425.44;;;19.74;38.90
74334;BME280;62753;40.394;-80.022;2023-09-19T10:11:31;97427.04;;;18.79;39.99
74334;BME280;62753;40.394;-80.022;2023-09-19T10:13:57;97430.63;;;19.22;39.65
74334;BME280;62753;40.394;-80.022;2023-09-19T10:16:22;97436.88;;;19.29;39.31
74334;BME280;62753;40.394;-80.022;2023-09-19T10:18:49;97443.56;;;18.61;41.00
74334;BME280;62753;40.394;-80.022;2023-09-19T10:21:13;97443.23;;;19.32;39.55
74334;BME280;62753;40.394;-80.022;2023-09-19T10:23:41;97446.71;;;20.14;37.79
74334;BME280;62753;40.394;-80.022;2023-09-19T10:26:05;97451.62;;;19.43;38.90
74334;BME280;62753;40.394;-80.022;2023-09-19T10:28:31;97453.22;;;19.93;38.43
74334;BME280;62753;40.394;-80.022;2023-09-19T10:30:55;97457.61;;;20.00;38.03
74334;BME280;62753;40.394;-80.022;2023-09-19T10:33:21;97457.65;;;19.46;38.72
74334;BME280;62753;40.394;-80.022;2023-09-19T10:35:47;97460.78;;;19.69;38.42
74334;BME280;62753;40.394;-80.022;2023-09-19T10:38:11;97465.18;;;19.77;38.23
74334;BME280;62753;40.394;-80.022;2023-09-19T10:40:37;97471.25;;;19.68;38.65
74334;BME280;62753;40.394;-80.022;2023-09-19T10:43:04;97476.06;;;18.88;39.82
74334;BME280;62753;40.394;-80.022;2023-09-19T10:45:29;97479.47;;;19.78;37.94
74334;BME280;62753;40.394;-80.022;2023-09-19T10:47:53;97485.74;;;19.52;38.83
74334;BME280;62753;40.394;-80.022;2023-09-19T10:50:20;97489.50;;;20.30;38.34
74334;BME280;62753;40.394;-80.022;2023-09-19T10:52:43;97492.35;;;18.72;39.95
74334;BME280;62753;40.394;-80.022;2023-09-19T10:55:10;97492.93;;;19.38;39.02
74334;BME280;62753;40.394;-80.022;2023-09-19T10:57:34;97495.60;;;19.25;38.82
74334;BME280;62753;40.394;-80.022;2023-09-19T11:00:04;97500.46;;;18.74;39.66
74334;BME280;62753;40.394;-80.022;2023-09-19T11:02:25;97503.57;;;18.54;39.84
74334;BME280;62753;40.394;-80.022;2023-09-19T11:04:50;97506.24;;;17.84;41.10
74334;BME280;62753;40.394;-80.022;2023-09-19T11:07:16;97507.61;;;19.63;38.85
74334;BME280;62753;40.394;-80.022;2023-09-19T11:09:46;97511.68;;;19.83;37.78
74334;BME280;62753;40.394;-80.022;2023-09-19T11:12:06;97515.95;;;20.04;37.59
74334;BME280;62753;40.394;-80.022;2023-09-19T11:14:40;97518.68;;;19.88;38.47
74334;BME280;62753;40.394;-80.022;2023-09-19T11:19:23;97521.95;;;20.09;37.98
74334;BME280;62753;40.394;-80.022;2023-09-19T11:21:53;97524.17;;;20.19;38.03
74334;BME280;62753;40.394;-80.022;2023-09-19T11:24:29;97526.06;;;20.54;37.15
74334;BME280;62753;40.394;-80.022;2023-09-19T11:26:41;97529.81;;;20.32;38.13
74334;BME280;62753;40.394;-80.022;2023-09-19T11:31:41;97534.21;;;19.39;39.56
74334;BME280;62753;40.394;-80.022;2023-09-19T11:38:57;97541.27;;;18.49;41.04
74334;BME280;62753;40.394;-80.022;2023-09-19T11:43:37;97539.93;;;19.76;38.39
74334;BME280;62753;40.394;-80.022;2023-09-19T11:46:05;97546.58;;;20.08;38.02
74334;BME280;62753;40.394;-80.022;2023-09-19T11:48:29;97544.65;;;19.86;38.49
74334;BME280;62753;40.394;-80.022;2023-09-19T11:50:53;97551.31;;;18.89;40.34
74334;BME280;62753;40.394;-80.022;2023-09-19T11:53:19;97552.21;;;20.23;38.17
74334;BME280;62753;40.394;-80.022;2023-09-19T11:55:45;97558.30;;;19.31;39.84
74334;BME280;62753;40.394;-80.022;2023-09-19T11:58:10;97561.40;;;19.53;39.30
74334;BME280;62753;40.394;-80.022;2023-09-19T12:00:38;97563.72;;;19.69;38.96
74334;BME280;62753;40.394;-80.022;2023-09-19T12:03:08;97569.04;;;19.33;39.53
74334;BME280;62753;40.394;-80.022;2023-09-19T12:05:28;97568.92;;;20.76;36.99
74334;BME280;62753;40.394;-80.022;2023-09-19T12:07:52;97573.88;;;19.89;38.55
74334;BME280;62753;40.394;-80.022;2023-09-19T12:10:18;97574.53;;;19.95;38.24
74334;BME280;62753;40.394;-80.022;2023-09-19T12:12:47;97573.92;;;20.37;37.81
74334;BME280;62753;40.394;-80.022;2023-09-19T12:15:09;97578.02;;;20.20;38.63
74334;BME280;62753;40.394;-80.022;2023-09-19T12:17:36;97576.56;;;20.30;37.72
74334;BME280;62753;40.394;-80.022;2023-09-19T12:20:00;97581.46;;;20.49;37.73
74334;BME280;62753;40.394;-80.022;2023-09-19T12:24:51;97587.54;;;20.86;36.77
74334;BME280;62753;40.394;-80.022;2023-09-19T12:27:17;97588.01;;;21.12;36.73
74334;BME280;62753;40.394;-80.022;2023-09-19T12:29:43;97588.12;;;22.07;35.12
74334;BME280;62753;40.394;-80.022;2023-09-19T12:32:08;97587.67;;;21.43;35.48
74334;BME280;62753;40.394;-80.022;2023-09-19T12:34:33;97584.59;;;21.42;35.69
74334;BME280;62753;40.394;-80.022;2023-09-19T12:37:05;97581.81;;;22.35;34.49
74334;BME280;62753;40.394;-80.022;2023-09-19T12:39:24;97580.98;;;21.67;34.48
74334;BME280;62753;40.394;-80.022;2023-09-19T12:41:49;97584.09;;;20.58;36.38
74334;BME280;62753;40.394;-80.022;2023-09-19T12:44:14;97589.30;;;22.01;35.13
74334;BME280;62753;40.394;-80.022;2023-09-19T12:46:39;97584.20;;;21.66;35.49
74334;BME280;62753;40.394;-80.022;2023-09-19T12:49:14;97584.18;;;21.37;35.84
74334;BME280;62753;40.394;-80.022;2023-09-19T12:51:35;97586.64;;;22.02;35.29
74334;BME280;62753;40.394;-80.022;2023-09-19T12:53:58;97590.23;;;21.10;37.24
74334;BME280;62753;40.394;-80.022;2023-09-19T12:56:22;97595.10;;;21.78;35.68
74334;BME280;62753;40.394;-80.022;2023-09-19T12:58:51;97590.56;;;22.18;34.65